Time;durP1;ratioP1;P1;durP2;ratioP2;P2;SDS_P1;SDS_P2;PMS_P1;PMS_P2;Temp;Humidity;BMP_temperature;BMP_pressure;BME280_temperature;BME280_humidity;BME280_pressure;Samples;Min_cycle;Max_cycle;Signal;HPM_P1;HPM_P2
2021/07/27 00:00:34;;;;;;;;;;;25.70;97.00;;;;;;5087313;28;19915;-44
2021/07/27 00:03:00;;;;;;;;;;;25.70;97.00;;;;;;5087692;28;19986;-46
2021/07/27 00:05:27;;;;;;;;;;;25.70;97.00;;;;;;5087525;28;19927;-43
2021/07/27 00:07:53;;;;;;;;;;;25.70;97.00;;;;;;5087349;28;19936;-44
2021/07/27 00:10:20;;;;;;;;;;;25.70;97.00;;;;;;5105391;28;19903;-45
2021/07/27 00:12:46;;;;;;;;;;;25.70;97.00;;;;;;5105724;28;19904;-46
2021/07/27 00:15:13;;;;;;;;;;;25.70;97.10;;;;;;5104638;28;19903;-41
2021/07/27 00:17:39;;;;;;;;;;;25.70;97.10;;;;;;5105496;28;19904;-40
2021/07/27 00:20:05;;;;;;;;;;;25.60;97.10;;;;;;5104946;28;19914;-44
2021/07/27 00:22:32;;;;;;;;;;;25.60;97.20;;;;;;5104897;28;19911;-47
2021/07/27 00:24:58;;;;;;;;;;;25.50;97.10;;;;;;5105055;28;19967;-51
2021/07/27 00:27:26;;;;;;;;;;;25.60;97.10;;;;;;5069658;28;19908;-44
2021/07/27 00:29:52;;;;;;;;;;;25.50;97.20;;;;;;5104849;28;19966;-44
2021/07/27 00:32:23;;;;;;;;;;;25.50;97.20;;;;;;5104696;28;19912;-45
2021/07/27 00:34:54;;;;;;;;;;;25.50;97.10;;;;;;5104826;28;20252;-42
2021/07/27 00:37:27;;;;;;;;;;;25.50;97.20;;;;;;5104619;28;19983;-40
2021/07/27 00:39:57;;;;;;;;;;;25.50;97.30;;;;;;5086852;28;20100;-40
2021/07/27 00:42:23;;;;;;;;;;;25.40;97.30;;;;;;5103245;28;20088;-49
2021/07/27 00:44:50;;;;;;;;;;;25.40;97.20;;;;;;5085739;28;19907;-43
2021/07/27 00:47:17;;;;;;;;;;;25.50;97.20;;;;;;5103296;28;19912;-43
2021/07/27 00:49:44;;;;;;;;;;;25.40;97.20;;;;;;5079655;28;19904;-45
2021/07/27 00:52:11;;;;;;;;;;;25.40;97.30;;;;;;5103752;28;19916;-44
2021/07/27 00:54:38;;;;;;;;;;;25.40;97.30;;;;;;5100485;28;20103;-42
2021/07/27 00:57:04;;;;;;;;;;;25.40;97.30;;;;;;5103629;28;20134;-41
2021/07/27 00:59:30;;;;;;;;;;;25.40;97.30;;;;;;5082197;28;19917;-41
2021/07/27 01:01:57;;;;;;;;;;;25.40;97.30;;;;;;5076284;28;20115;-42
2021/07/27 01:04:24;;;;;;;;;;;25.40;97.30;;;;;;5084260;28;20100;-41
2021/07/27 01:06:53;;;;;;;;;;;25.40;97.20;;;;;;5066195;28;19916;-42
2021/07/27 01:09:26;;;;;;;;;;;25.40;97.20;;;;;;5084125;28;19901;-40
2021/07/27 01:11:52;;;;;;;;;;;25.40;97.30;;;;;;5082999;28;19979;-41
2021/07/27 01:14:20;;;;;;;;;;;25.40;97.30;;;;;;5083958;28;20093;-40
2021/07/27 01:16:46;;;;;;;;;;;25.30;97.40;;;;;;5066439;28;19939;-40
2021/07/27 01:38:21;;;;;;;;;;;25.30;97.60;;;;;;5124232;28;20005;-41
2021/07/27 01:43:28;;;;;;;;;;;25.20;97.60;;;;;;5101173;28;19910;-43
2021/07/27 01:45:59;;;;;;;;;;;25.20;97.70;;;;;;5125912;28;19899;-40
2021/07/27 01:48:28;;;;;;;;;;;25.20;97.70;;;;;;5114042;28;19900;-44
2021/07/27 01:50:58;;;;;;;;;;;25.20;97.70;;;;;;5124669;28;20100;-42
2021/07/27 01:53:47;;;;;;;;;;;25.20;97.70;;;;;;5104009;28;19899;-42
2021/07/27 01:56:14;;;;;;;;;;;25.20;97.70;;;;;;5128040;28;19915;-41
2021/07/27 01:58:41;;;;;;;;;;;25.20;97.70;;;;;;5128165;28;19904;-41
2021/07/27 02:01:07;;;;;;;;;;;25.20;97.70;;;;;;5127435;28;19916;-40
2021/07/27 02:03:33;;;;;;;;;;;25.20;97.60;;;;;;5086736;28;19900;-41
2021/07/27 02:06:01;;;;;;;;;;;25.20;97.60;;;;;;5069477;28;19908;-40
2021/07/27 02:08:27;;;;;;;;;;;25.20;97.60;;;;;;5088828;28;19933;-45
2021/07/27 02:11:00;;;;;;;;;;;25.20;97.60;;;;;;5107691;28;19900;-41
2021/07/27 02:13:28;;;;;;;;;;;25.20;97.70;;;;;;5089154;28;19922;-43
2021/07/27 02:16:06;;;;;;;;;;;25.20;97.70;;;;;;5106601;28;20087;-41
2021/07/27 02:18:38;;;;;;;;;;;25.20;97.70;;;;;;5084945;28;19916;-45
2021/07/27 02:21:08;;;;;;;;;;;25.20;97.70;;;;;;5087255;28;19953;-40
2021/07/27 02:23:37;;;;;;;;;;;25.20;97.70;;;;;;5087049;28;19950;-40
2021/07/27 02:26:08;;;;;;;;;;;25.20;97.70;;;;;;5069302;28;20100;-41
2021/07/27 02:28:34;;;;;;;;;;;25.20;97.80;;;;;;5087100;28;20244;-45
2021/07/27 02:31:03;;;;;;;;;;;25.20;97.70;;;;;;5086683;28;19908;-42
2021/07/27 02:33:36;;;;;;;;;;;25.20;97.80;;;;;;5126946;28;19900;-40
2021/07/27 02:36:02;;;;;;;;;;;25.20;97.80;;;;;;5127759;28;20033;-39
2021/07/27 02:38:30;;;;;;;;;;;25.20;97.80;;;;;;5127161;28;19919;-42
2021/07/27 02:40:57;;;;;;;;;;;25.20;97.80;;;;;;5127650;28;19899;-47
2021/07/27 02:43:23;;;;;;;;;;;25.20;97.80;;;;;;5126727;28;19900;-42
2021/07/27 02:45:49;;;;;;;;;;;25.10;97.80;;;;;;5092187;28;19939;-40
2021/07/27 02:48:15;;;;;;;;;;;25.20;97.80;;;;;;5109583;28;19908;-40
2021/07/27 02:50:42;;;;;;;;;;;25.20;97.90;;;;;;5127270;28;19907;-43
2021/07/27 02:53:11;;;;;;;;;;;25.10;97.90;;;;;;5127123;28;19904;-42
2021/07/27 02:55:39;;;;;;;;;;;25.10;97.80;;;;;;5108467;28;19908;-45
2021/07/27 02:58:12;;;;;;;;;;;25.10;97.80;;;;;;5120615;28;19907;-40
2021/07/27 03:00:38;;;;;;;;;;;25.10;97.80;;;;;;5106215;28;19974;-49
2021/07/27 03:03:06;;;;;;;;;;;25.10;97.90;;;;;;5106615;28;20208;-46
2021/07/27 03:05:32;;;;;;;;;;;25.20;97.90;;;;;;5088607;28;19911;-50
2021/07/27 03:07:59;;;;;;;;;;;25.10;97.80;;;;;;5101334;28;20320;-42
2021/07/27 03:10:27;;;;;;;;;;;25.20;97.80;;;;;;5088594;28;19932;-40
2021/07/27 03:12:54;;;;;;;;;;;25.20;97.80;;;;;;5106846;28;19908;-43
2021/07/27 03:15:29;;;;;;;;;;;25.20;97.70;;;;;;5106467;28;19912;-41
2021/07/27 03:17:57;;;;;;;;;;;25.20;97.80;;;;;;5106816;28;19926;-41
2021/07/27 03:20:28;;;;;;;;;;;25.20;97.70;;;;;;5088559;28;20245;-42
2021/07/27 03:22:56;;;;;;;;;;;25.20;97.70;;;;;;5106114;28;19916;-40
2021/07/27 03:25:26;;;;;;;;;;;25.20;97.70;;;;;;5106239;28;19900;-39
2021/07/27 03:27:54;;;;;;;;;;;25.20;97.70;;;;;;5108852;28;19946;-40
2021/07/27 03:30:22;;;;;;;;;;;25.20;97.70;;;;;;5109012;28;19903;-39
2021/07/27 03:32:52;;;;;;;;;;;25.20;97.70;;;;;;5108541;28;19908;-42
2021/07/27 03:35:21;;;;;;;;;;;25.20;97.70;;;;;;5126703;28;19927;-39
2021/07/27 03:37:48;;;;;;;;;;;25.20;97.70;;;;;;5125904;28;19951;-43
2021/07/27 03:40:15;;;;;;;;;;;25.20;97.70;;;;;;5108121;28;19907;-44
2021/07/27 03:42:42;;;;;;;;;;;25.30;97.70;;;;;;5126722;28;19947;-44
2021/07/27 03:45:09;;;;;;;;;;;25.20;97.60;;;;;;5126308;28;19900;-41
2021/07/27 03:47:36;;;;;;;;;;;25.20;97.60;;;;;;5106839;28;19907;-41
2021/07/27 03:50:09;;;;;;;;;;;25.30;97.60;;;;;;5085352;28;19916;-45
2021/07/27 03:52:35;;;;;;;;;;;25.30;97.60;;;;;;5085119;28;19908;-43
2021/07/27 03:55:01;;;;;;;;;;;25.20;97.50;;;;;;5098913;28;19971;-42
2021/07/27 03:57:28;;;;;;;;;;;25.30;97.50;;;;;;5125612;28;20217;-41
2021/07/27 03:59:54;;;;;;;;;;;25.30;97.50;;;;;;5125749;28;19938;-44
2021/07/27 04:02:20;;;;;;;;;;;25.30;97.40;;;;;;5124952;28;19914;-41
2021/07/27 04:04:46;;;;;;;;;;;25.30;97.40;;;;;;5088677;28;19907;-43
2021/07/27 04:07:13;;;;;;;;;;;25.30;97.40;;;;;;5104851;28;19912;-41
2021/07/27 04:09:40;;;;;;;;;;;25.20;97.40;;;;;;5104244;28;19907;-40
2021/07/27 04:12:09;;;;;;;;;;;25.20;97.40;;;;;;5087311;28;19908;-41
2021/07/27 04:14:39;;;;;;;;;;;25.20;97.40;;;;;;5105213;28;19900;-44
2021/07/27 04:17:09;;;;;;;;;;;25.20;97.30;;;;;;5088221;28;19908;-45
2021/07/27 04:19:43;;;;;;;;;;;25.20;97.40;;;;;;5121520;28;19905;-40
2021/07/27 04:22:11;;;;;;;;;;;25.20;97.30;;;;;;5125806;28;19907;-39
2021/07/27 04:24:41;;;;;;;;;;;25.20;97.30;;;;;;5114706;28;19911;-45
2021/07/27 04:27:20;;;;;;;;;;;25.20;97.30;;;;;;5081733;28;19923;-42
2021/07/27 04:29:52;;;;;;;;;;;25.20;97.30;;;;;;5085989;28;19979;-42
2021/07/27 04:32:19;;;;;;;;;;;25.20;97.30;;;;;;5082291;28;20207;-44
2021/07/27 04:34:54;;;;;;;;;;;25.20;97.30;;;;;;5101024;28;19958;-45
2021/07/27 04:37:21;;;;;;;;;;;25.20;97.30;;;;;;5074742;28;20193;-41
2021/07/27 04:39:51;;;;;;;;;;;25.20;97.30;;;;;;5065098;28;19917;-43
2021/07/27 04:42:17;;;;;;;;;;;25.20;97.30;;;;;;5084153;28;20181;-42
2021/07/27 04:44:47;;;;;;;;;;;25.20;97.20;;;;;;5084376;28;19946;-42
2021/07/27 04:47:17;;;;;;;;;;;25.20;97.20;;;;;;5084373;28;19909;-40
2021/07/27 04:49:48;;;;;;;;;;;25.20;97.30;;;;;;5083836;28;19900;-40
2021/07/27 04:52:20;;;;;;;;;;;25.20;97.30;;;;;;5066297;28;19908;-38
2021/07/27 04:54:55;;;;;;;;;;;25.20;97.30;;;;;;5084219;28;20243;-40
2021/07/27 04:57:36;;;;;;;;;;;25.20;97.30;;;;;;5084175;28;19908;-40
2021/07/27 05:00:15;;;;;;;;;;;25.20;97.30;;;;;;5084332;28;19911;-44
2021/07/27 05:02:41;;;;;;;;;;;25.20;97.30;;;;;;5083487;28;19916;-39
2021/07/27 05:05:07;;;;;;;;;;;25.20;97.40;;;;;;5082279;28;20131;-41
2021/07/27 05:07:36;;;;;;;;;;;25.10;97.30;;;;;;5065250;28;20097;-40
2021/07/27 05:10:04;;;;;;;;;;;25.20;97.40;;;;;;5082914;28;20414;-40
2021/07/27 05:12:35;;;;;;;;;;;25.20;97.40;;;;;;5082839;28;20193;-39
2021/07/27 05:15:02;;;;;;;;;;;25.20;97.40;;;;;;5082594;28;19900;-45
2021/07/27 05:17:30;;;;;;;;;;;25.20;97.40;;;;;;5081144;28;19984;-43
2021/07/27 05:19:56;;;;;;;;;;;25.20;97.40;;;;;;5077086;28;19978;-44
2021/07/27 05:22:25;;;;;;;;;;;25.10;97.30;;;;;;5083160;28;20227;-46
2021/07/27 05:25:06;;;;;;;;;;;25.10;97.30;;;;;;5084139;28;19971;-41
2021/07/27 05:27:33;;;;;;;;;;;25.10;97.30;;;;;;5081132;28;20066;-44
2021/07/27 05:30:00;;;;;;;;;;;25.10;97.30;;;;;;5087834;28;19900;-43
2021/07/27 05:32:26;;;;;;;;;;;25.10;97.30;;;;;;5088414;28;19908;-44
2021/07/27 05:34:54;;;;;;;;;;;25.10;97.30;;;;;;5087825;28;19967;-39
2021/07/27 05:37:21;;;;;;;;;;;25.10;97.20;;;;;;5096215;28;19912;-40
2021/07/27 05:39:47;;;;;;;;;;;25.10;97.20;;;;;;5090182;28;19919;-43
2021/07/27 05:42:14;;;;;;;;;;;25.10;97.20;;;;;;5108571;28;19908;-43
2021/07/27 05:44:40;;;;;;;;;;;25.10;97.20;;;;;;5107924;28;19900;-43
2021/07/27 05:47:06;;;;;;;;;;;25.10;97.20;;;;;;5108310;28;19911;-43
2021/07/27 05:49:35;;;;;;;;;;;25.10;97.20;;;;;;5107732;28;20261;-43
2021/07/27 05:52:01;;;;;;;;;;;25.10;97.20;;;;;;5108142;28;20088;-42
2021/07/27 05:54:28;;;;;;;;;;;25.10;97.20;;;;;;5107933;28;19904;-41
2021/07/27 05:56:55;;;;;;;;;;;25.10;97.20;;;;;;5108075;28;19904;-42
2021/07/27 05:59:21;;;;;;;;;;;25.10;97.20;;;;;;5106899;28;19908;-41
2021/07/27 06:01:49;;;;;;;;;;;25.10;97.20;;;;;;5108128;28;19904;-41
2021/07/27 06:04:16;;;;;;;;;;;25.10;97.20;;;;;;5107231;28;19918;-45
2021/07/27 06:06:42;;;;;;;;;;;25.10;97.20;;;;;;5089458;28;19904;-40
2021/07/27 06:09:11;;;;;;;;;;;25.10;97.20;;;;;;5107596;28;19942;-43
2021/07/27 06:11:38;;;;;;;;;;;25.10;97.20;;;;;;5107715;28;19932;-44
2021/07/27 06:14:07;;;;;;;;;;;25.10;97.10;;;;;;5106765;28;19911;-46
2021/07/27 06:16:37;;;;;;;;;;;25.10;97.10;;;;;;5107776;28;19904;-48
2021/07/27 06:19:04;;;;;;;;;;;25.10;97.20;;;;;;5106626;28;19908;-41
2021/07/27 06:21:31;;;;;;;;;;;25.00;97.20;;;;;;5106619;28;19935;-44
2021/07/27 06:23:57;;;;;;;;;;;25.10;97.30;;;;;;5072668;28;19914;-41
2021/07/27 06:26:23;;;;;;;;;;;25.00;97.20;;;;;;5089307;28;19926;-46
2021/07/27 06:28:50;;;;;;;;;;;25.00;97.20;;;;;;5106630;28;19903;-49
2021/07/27 06:31:18;;;;;;;;;;;25.00;97.20;;;;;;5106381;28;20091;-44
2021/07/27 06:33:47;;;;;;;;;;;25.00;97.20;;;;;;5089151;28;19911;-41
2021/07/27 06:36:14;;;;;;;;;;;25.00;97.20;;;;;;5106536;28;19975;-44
2021/07/27 06:38:41;;;;;;;;;;;25.00;97.10;;;;;;5086977;28;19944;-46
2021/07/27 06:41:08;;;;;;;;;;;25.00;97.10;;;;;;5086837;28;20177;-40
2021/07/27 06:43:34;;;;;;;;;;;25.00;97.10;;;;;;5085468;28;19900;-40
2021/07/27 06:46:00;;;;;;;;;;;25.00;97.10;;;;;;5068367;28;19909;-43
2021/07/27 06:48:26;;;;;;;;;;;25.00;97.00;;;;;;5068852;28;19975;-42
2021/07/27 06:50:54;;;;;;;;;;;25.00;97.00;;;;;;5086425;28;19907;-53
2021/07/27 06:53:23;;;;;;;;;;;25.00;97.10;;;;;;5068689;28;19900;-45
2021/07/27 06:55:56;;;;;;;;;;;25.00;97.10;;;;;;5086517;28;20192;-41
2021/07/27 06:58:23;;;;;;;;;;;25.00;97.00;;;;;;5086239;28;19954;-42
2021/07/27 07:00:49;;;;;;;;;;;25.00;97.00;;;;;;5086092;28;20108;-44
2021/07/27 07:03:17;;;;;;;;;;;25.00;97.00;;;;;;5085576;28;20092;-45
2021/07/27 07:05:43;;;;;;;;;;;24.90;97.00;;;;;;5068243;28;19939;-44
2021/07/27 07:08:10;;;;;;;;;;;25.00;97.10;;;;;;5085979;28;19901;-44
2021/07/27 07:10:36;;;;;;;;;;;25.00;97.00;;;;;;5086168;28;19924;-40
2021/07/27 07:13:02;;;;;;;;;;;25.00;97.00;;;;;;5086554;28;19908;-45
2021/07/27 07:15:28;;;;;;;;;;;24.90;97.00;;;;;;5068396;28;19967;-42
2021/07/27 07:17:54;;;;;;;;;;;24.90;97.00;;;;;;5085702;28;19916;-42
2021/07/27 07:20:21;;;;;;;;;;;24.90;97.00;;;;;;5085851;28;19982;-47
2021/07/27 07:22:47;;;;;;;;;;;24.90;97.00;;;;;;5086374;28;19954;-40
2021/07/27 07:25:13;;;;;;;;;;;24.90;97.00;;;;;;5068147;28;19900;-46
2021/07/27 07:27:39;;;;;;;;;;;24.90;97.00;;;;;;5086143;28;19915;-41
2021/07/27 07:30:06;;;;;;;;;;;24.90;97.00;;;;;;5085930;28;19901;-42
2021/07/27 07:32:33;;;;;;;;;;;24.90;97.00;;;;;;5084951;28;20092;-42
2021/07/27 07:34:59;;;;;;;;;;;24.90;97.00;;;;;;5085872;28;20212;-44
2021/07/27 07:37:25;;;;;;;;;;;24.90;97.00;;;;;;5095585;28;19916;-41
2021/07/27 07:39:51;;;;;;;;;;;24.90;97.00;;;;;;5105875;28;19965;-42
2021/07/27 07:42:19;;;;;;;;;;;24.90;97.00;;;;;;5105589;28;19915;-43
2021/07/27 07:44:45;;;;;;;;;;;24.90;97.00;;;;;;5106059;28;19908;-41
2021/07/27 07:47:11;;;;;;;;;;;24.90;97.00;;;;;;5106008;28;20265;-41
2021/07/27 07:49:38;;;;;;;;;;;24.90;97.00;;;;;;5105586;28;20092;-43
2021/07/27 07:52:04;;;;;;;;;;;24.90;97.00;;;;;;5105076;28;19907;-47
2021/07/27 07:54:31;;;;;;;;;;;24.90;97.00;;;;;;5105791;28;19900;-42
2021/07/27 07:56:59;;;;;;;;;;;24.90;97.00;;;;;;5105616;28;19912;-46
2021/07/27 07:59:25;;;;;;;;;;;24.90;97.00;;;;;;5086498;28;19904;-38
2021/07/27 08:01:55;;;;;;;;;;;24.90;97.00;;;;;;5087482;28;19908;-47
2021/07/27 08:04:24;;;;;;;;;;;24.90;97.10;;;;;;5105421;28;19958;-40
2021/07/27 08:06:52;;;;;;;;;;;24.90;97.10;;;;;;5105564;28;19939;-43
2021/07/27 08:09:19;;;;;;;;;;;24.90;97.10;;;;;;5087271;28;19907;-48
2021/07/27 08:11:46;;;;;;;;;;;24.90;97.10;;;;;;5087308;28;19912;-44
2021/07/27 08:14:13;;;;;;;;;;;24.80;97.10;;;;;;5104802;28;19899;-46
2021/07/27 08:16:39;;;;;;;;;;;24.90;97.10;;;;;;5105465;28;19908;-42
2021/07/27 08:19:05;;;;;;;;;;;24.90;97.10;;;;;;5105247;28;19947;-42
2021/07/27 08:21:31;;;;;;;;;;;24.90;97.10;;;;;;5105275;28;19914;-41
2021/07/27 08:23:58;;;;;;;;;;;24.80;97.20;;;;;;5103959;28;19900;-43
2021/07/27 08:26:24;;;;;;;;;;;24.80;97.20;;;;;;5105232;28;20092;-48
2021/07/27 08:28:50;;;;;;;;;;;24.90;97.20;;;;;;5086787;28;20214;-51
2021/07/27 08:31:16;;;;;;;;;;;24.80;97.10;;;;;;5104208;28;20172;-44
2021/07/27 08:33:42;;;;;;;;;;;24.80;97.10;;;;;;5104839;28;19949;-44
2021/07/27 08:36:09;;;;;;;;;;;24.90;97.10;;;;;;5104724;28;19979;-41
2021/07/27 08:38:37;;;;;;;;;;;24.80;97.20;;;;;;5104651;28;20223;-43
2021/07/27 08:41:04;;;;;;;;;;;24.80;97.10;;;;;;5104821;28;19946;-42
2021/07/27 08:43:30;;;;;;;;;;;24.80;97.10;;;;;;5104627;28;19907;-41
2021/07/27 08:45:58;;;;;;;;;;;24.80;97.10;;;;;;5104335;28;19971;-42
2021/07/27 08:48:24;;;;;;;;;;;24.80;97.00;;;;;;5104621;28;20180;-47
2021/07/27 08:50:50;;;;;;;;;;;24.90;97.00;;;;;;5104606;28;19900;-41
2021/07/27 08:53:17;;;;;;;;;;;24.80;97.10;;;;;;5104183;28;19966;-45
2021/07/27 08:55:43;;;;;;;;;;;24.80;97.10;;;;;;5103543;28;19906;-45
2021/07/27 08:58:09;;;;;;;;;;;24.80;97.10;;;;;;5086598;28;19907;-46
2021/07/27 09:00:36;;;;;;;;;;;24.80;97.00;;;;;;5103972;28;20115;-43
2021/07/27 09:03:16;;;;;;;;;;;24.80;97.00;;;;;;5103716;28;19973;-47
2021/07/27 09:05:44;;;;;;;;;;;24.80;97.00;;;;;;5104386;28;19899;-42
2021/07/27 09:08:11;;;;;;;;;;;24.80;97.00;;;;;;5103240;28;20238;-43
2021/07/27 09:10:40;;;;;;;;;;;24.80;96.90;;;;;;5104400;28;19976;-45
2021/07/27 09:13:08;;;;;;;;;;;24.80;96.90;;;;;;5104278;28;19939;-42
2021/07/27 09:15:38;;;;;;;;;;;24.80;96.80;;;;;;5102801;28;19966;-46
2021/07/27 09:18:11;;;;;;;;;;;24.80;96.80;;;;;;5104586;28;19908;-47
2021/07/27 09:20:41;;;;;;;;;;;24.80;96.80;;;;;;5104181;28;19926;-44
2021/07/27 09:23:12;;;;;;;;;;;24.80;96.80;;;;;;5104200;28;19908;-48
2021/07/27 09:25:44;;;;;;;;;;;24.80;96.70;;;;;;5104126;28;19945;-45
2021/07/27 09:28:10;;;;;;;;;;;24.80;96.70;;;;;;5103357;28;19907;-42
2021/07/27 09:30:39;;;;;;;;;;;24.70;96.60;;;;;;5104089;28;19907;-45
2021/07/27 09:33:08;;;;;;;;;;;24.70;96.70;;;;;;5104028;28;19908;-44
2021/07/27 09:35:35;;;;;;;;;;;24.70;96.70;;;;;;5104051;28;19949;-38
2021/07/27 09:38:02;;;;;;;;;;;24.80;96.70;;;;;;5088330;28;19912;-43
2021/07/27 09:40:28;;;;;;;;;;;24.70;96.70;;;;;;5083731;28;19908;-47
2021/07/27 09:42:56;;;;;;;;;;;24.80;96.70;;;;;;5084349;28;19909;-42
2021/07/27 09:45:24;;;;;;;;;;;24.70;96.50;;;;;;5083955;28;19900;-42
2021/07/27 09:47:54;;;;;;;;;;;24.70;96.30;;;;;;5084046;28;19909;-44
2021/07/27 09:50:21;;;;;;;;;;;24.70;96.40;;;;;;5083812;28;19936;-46
2021/07/27 09:52:47;;;;;;;;;;;24.80;96.40;;;;;;5084317;28;19915;-48
2021/07/27 09:55:14;;;;;;;;;;;24.70;96.30;;;;;;5083667;28;20193;-46
2021/07/27 09:57:41;;;;;;;;;;;24.70;96.30;;;;;;5065893;28;19979;-43
2021/07/27 10:00:07;;;;;;;;;;;24.70;96.30;;;;;;5084109;28;19904;-42
2021/07/27 10:02:38;;;;;;;;;;;24.70;96.30;;;;;;5083910;28;19958;-46
2021/07/27 10:05:05;;;;;;;;;;;24.70;96.30;;;;;;5084320;28;19946;-44
2021/07/27 10:07:31;;;;;;;;;;;24.70;96.30;;;;;;5069655;28;19936;-47
2021/07/27 10:10:08;;;;;;;;;;;24.70;96.30;;;;;;5087300;28;19900;-44
2021/07/27 10:12:34;;;;;;;;;;;24.70;96.40;;;;;;5087741;28;20089;-43
2021/07/27 10:15:10;;;;;;;;;;;24.70;96.40;;;;;;5087085;28;19906;-45
2021/07/27 10:17:50;;;;;;;;;;;24.70;96.50;;;;;;5087635;28;19909;-45
2021/07/27 10:20:26;;;;;;;;;;;24.60;96.50;;;;;;5086970;28;19904;-44
2021/07/27 10:22:53;;;;;;;;;;;24.60;96.50;;;;;;5087508;28;19908;-44
2021/07/27 10:25:20;;;;;;;;;;;24.60;96.60;;;;;;5087128;28;19900;-43
2021/07/27 10:27:47;;;;;;;;;;;24.60;96.60;;;;;;5087367;28;19914;-43
2021/07/27 10:30:14;;;;;;;;;;;24.60;96.60;;;;;;5086815;28;19900;-43
2021/07/27 10:32:51;;;;;;;;;;;24.60;96.60;;;;;;5087243;28;19909;-43
2021/07/27 10:35:33;;;;;;;;;;;24.60;96.60;;;;;;5087061;28;19942;-41
2021/07/27 10:38:12;;;;;;;;;;;24.60;96.50;;;;;;5086792;28;20104;-46
2021/07/27 10:40:38;;;;;;;;;;;24.60;96.60;;;;;;5086575;28;19914;-46
2021/07/27 10:43:07;;;;;;;;;;;24.60;96.60;;;;;;5086835;28;19900;-40
2021/07/27 10:45:33;;;;;;;;;;;24.60;96.70;;;;;;5086540;28;19900;-41
2021/07/27 10:48:00;;;;;;;;;;;24.60;96.70;;;;;;5087031;28;20078;-40
2021/07/27 10:50:27;;;;;;;;;;;24.60;96.70;;;;;;5086551;28;19936;-47
2021/07/27 10:53:10;;;;;;;;;;;24.60;96.80;;;;;;5086896;28;19908;-45
2021/07/27 10:55:37;;;;;;;;;;;24.60;96.90;;;;;;5086400;28;19923;-41
2021/07/27 10:58:09;;;;;;;;;;;24.60;96.90;;;;;;5086204;28;19912;-40
2021/07/27 11:00:35;;;;;;;;;;;24.60;97.00;;;;;;5086291;28;20251;-40
2021/07/27 11:03:02;;;;;;;;;;;24.60;97.00;;;;;;5086792;28;19908;-43
2021/07/27 11:05:31;;;;;;;;;;;24.60;97.00;;;;;;5086088;28;19904;-47
2021/07/27 11:07:57;;;;;;;;;;;24.60;97.10;;;;;;5068625;28;20144;-44
2021/07/27 11:10:25;;;;;;;;;;;24.60;97.10;;;;;;5067959;28;19908;-41
2021/07/27 11:12:52;;;;;;;;;;;24.60;97.10;;;;;;5086372;28;20131;-52
2021/07/27 11:15:22;;;;;;;;;;;24.60;97.10;;;;;;5085760;28;20189;-39
2021/07/27 11:17:48;;;;;;;;;;;24.60;97.10;;;;;;5085307;28;19908;-40
2021/07/27 11:20:33;;;;;;;;;;;24.60;97.20;;;;;;5085461;28;19904;-42
2021/07/27 11:23:20;;;;;;;;;;;24.60;97.10;;;;;;5085224;28;19958;-41
2021/07/27 11:25:57;;;;;;;;;;;24.70;97.00;;;;;;5085540;28;19909;-42
2021/07/27 11:28:37;;;;;;;;;;;24.60;97.10;;;;;;5085574;28;19901;-43
2021/07/27 11:31:19;;;;;;;;;;;24.60;97.00;;;;;;5085829;28;19924;-48
2021/07/27 11:33:55;;;;;;;;;;;24.60;97.00;;;;;;5085086;28;19904;-39
2021/07/27 11:36:24;;;;;;;;;;;24.50;96.90;;;;;;5083877;28;20177;-39
2021/07/27 11:38:51;;;;;;;;;;;24.60;96.80;;;;;;5085659;28;20210;-41
2021/07/27 11:41:23;;;;;;;;;;;24.60;96.50;;;;;;5085356;28;19909;-49
2021/07/27 11:43:50;;;;;;;;;;;24.60;96.30;;;;;;5085197;28;20204;-44
2021/07/27 11:46:19;;;;;;;;;;;24.60;96.30;;;;;;5084612;28;20085;-42
2021/07/27 11:48:52;;;;;;;;;;;24.60;96.60;;;;;;5084359;28;19908;-40
2021/07/27 11:51:30;;;;;;;;;;;24.60;96.80;;;;;;5092335;28;19912;-43
2021/07/27 11:53:57;;;;;;;;;;;24.70;96.90;;;;;;5064578;28;20160;-47
2021/07/27 11:56:24;;;;;;;;;;;24.70;96.90;;;;;;5079647;28;19909;-45
2021/07/27 11:59:05;;;;;;;;;;;24.80;96.90;;;;;;5049188;28;19983;-46
2021/07/27 12:01:38;;;;;;;;;;;24.80;96.80;;;;;;5064370;28;19940;-40
2021/07/27 12:04:05;;;;;;;;;;;24.80;96.90;;;;;;5084648;28;20216;-43
2021/07/27 12:06:31;;;;;;;;;;;24.80;96.90;;;;;;5066989;28;19909;-41
2021/07/27 12:09:04;;;;;;;;;;;24.80;96.90;;;;;;5085169;28;19901;-42
2021/07/27 12:11:30;;;;;;;;;;;24.90;97.10;;;;;;5085049;28;19908;-45
2021/07/27 12:13:56;;;;;;;;;;;24.90;96.90;;;;;;5084519;28;19908;-41
2021/07/27 12:16:22;;;;;;;;;;;24.90;96.80;;;;;;5085121;28;19991;-42
2021/07/27 12:18:48;;;;;;;;;;;24.90;96.70;;;;;;5084702;28;19904;-40
2021/07/27 12:21:14;;;;;;;;;;;25.00;96.70;;;;;;5084950;28;20010;-43
2021/07/27 12:23:41;;;;;;;;;;;25.00;96.60;;;;;;5084755;28;20361;-41
2021/07/27 12:26:08;;;;;;;;;;;25.00;96.50;;;;;;5067007;28;19915;-41
2021/07/27 12:28:35;;;;;;;;;;;25.00;96.60;;;;;;5084320;28;19907;-42
2021/07/27 12:31:02;;;;;;;;;;;25.10;96.80;;;;;;5084551;28;19915;-40
2021/07/27 12:33:30;;;;;;;;;;;25.00;96.50;;;;;;5066834;28;19909;-44
2021/07/27 12:36:03;;;;;;;;;;;25.10;96.70;;;;;;5084493;28;19907;-46
2021/07/27 12:38:29;;;;;;;;;;;25.10;96.70;;;;;;5083690;28;19912;-42
2021/07/27 12:40:55;;;;;;;;;;;25.10;96.70;;;;;;5084564;28;19900;-43
2021/07/27 12:43:22;;;;;;;;;;;25.10;96.60;;;;;;5083582;28;19900;-48
2021/07/27 12:45:48;;;;;;;;;;;25.10;96.50;;;;;;5083693;28;19932;-42
2021/07/27 12:48:16;;;;;;;;;;;25.20;96.50;;;;;;5084247;28;19924;-44
2021/07/27 12:50:42;;;;;;;;;;;25.20;96.50;;;;;;5084024;28;19977;-45
2021/07/27 12:53:10;;;;;;;;;;;25.20;96.50;;;;;;5066977;28;19912;-49
2021/07/27 12:55:37;;;;;;;;;;;25.20;96.60;;;;;;5066371;28;19942;-48
2021/07/27 12:58:03;;;;;;;;;;;25.20;96.90;;;;;;5083551;28;19932;-47
2021/07/27 13:00:30;;;;;;;;;;;25.30;96.70;;;;;;5084476;28;20231;-46
2021/07/27 13:02:56;;;;;;;;;;;25.20;96.60;;;;;;5084859;28;19914;-47
2021/07/27 13:05:22;;;;;;;;;;;25.20;96.40;;;;;;5084313;28;19901;-48
2021/07/27 13:07:49;;;;;;;;;;;25.30;96.40;;;;;;5084205;28;19916;-51
2021/07/27 13:10:16;;;;;;;;;;;25.30;96.40;;;;;;5084281;28;20100;-47
2021/07/27 13:12:42;;;;;;;;;;;25.30;96.50;;;;;;5084567;28;19909;-44
2021/07/27 13:15:29;;;;;;;;;;;25.30;96.50;;;;;;5062531;28;19901;-51
2021/07/27 13:17:57;;;;;;;;;;;25.30;96.50;;;;;;5062224;28;20109;-51
2021/07/27 13:20:26;;;;;;;;;;;25.30;96.50;;;;;;5062198;28;19991;-48
2021/07/27 13:22:52;;;;;;;;;;;25.30;96.50;;;;;;5062155;28;19909;-45
2021/07/27 13:25:18;;;;;;;;;;;25.30;96.60;;;;;;5062321;28;19901;-49
2021/07/27 13:27:46;;;;;;;;;;;25.40;96.60;;;;;;5062144;28;19936;-48
2021/07/27 13:30:16;;;;;;;;;;;25.30;96.60;;;;;;5062206;28;19908;-42
2021/07/27 13:32:42;;;;;;;;;;;25.30;96.60;;;;;;5062135;28;19909;-45
2021/07/27 13:35:11;;;;;;;;;;;25.30;96.80;;;;;;5045447;28;20090;-49
2021/07/27 13:37:38;;;;;;;;;;;25.30;96.90;;;;;;5030725;28;19923;-48
2021/07/27 13:40:04;;;;;;;;;;;25.30;96.90;;;;;;5062759;28;19913;-49
2021/07/27 13:42:30;;;;;;;;;;;25.30;97.10;;;;;;5066313;28;19905;-50
2021/07/27 13:44:58;;;;;;;;;;;25.40;97.50;;;;;;5066025;28;19904;-48
2021/07/27 13:47:24;;;;;;;;;;;25.40;97.30;;;;;;5066013;28;19981;-47
2021/07/27 13:49:51;;;;;;;;;;;25.40;97.30;;;;;;5065959;28;19911;-46
2021/07/27 13:52:18;;;;;;;;;;;25.40;97.40;;;;;;5054965;28;19982;-46
2021/07/27 13:54:44;;;;;;;;;;;25.40;97.50;;;;;;5069977;28;19912;-52
2021/07/27 13:57:13;;;;;;;;;;;25.40;97.60;;;;;;5087734;28;19905;-48
2021/07/27 13:59:39;;;;;;;;;;;25.40;97.60;;;;;;5087593;28;19987;-49
2021/07/27 14:02:07;;;;;;;;;;;25.40;97.60;;;;;;5087951;28;20176;-49
2021/07/27 14:04:33;;;;;;;;;;;25.40;97.70;;;;;;5087352;28;19975;-45
2021/07/27 14:06:59;;;;;;;;;;;25.40;97.70;;;;;;5069972;28;20096;-47
2021/07/27 14:09:25;;;;;;;;;;;25.40;97.80;;;;;;5087391;28;19967;-50
2021/07/27 14:11:52;;;;;;;;;;;25.40;97.80;;;;;;5087491;28;19927;-53
2021/07/27 14:14:21;;;;;;;;;;;25.40;97.80;;;;;;5086087;28;19905;-49
2021/07/27 14:16:47;;;;;;;;;;;25.40;97.70;;;;;;5087425;28;19987;-49
2021/07/27 14:19:13;;;;;;;;;;;25.40;97.50;;;;;;5086924;28;19909;-51
2021/07/27 14:21:39;;;;;;;;;;;25.40;97.40;;;;;;5087083;28;19939;-47
2021/07/27 14:24:06;;;;;;;;;;;25.40;97.50;;;;;;5069676;28;20022;-47
2021/07/27 14:26:32;;;;;;;;;;;25.40;97.50;;;;;;5087103;28;20088;-47
2021/07/27 14:28:58;;;;;;;;;;;25.40;97.20;;;;;;5086026;28;19950;-49
2021/07/27 14:31:26;;;;;;;;;;;25.50;97.30;;;;;;5069407;28;19936;-45
2021/07/27 14:33:52;;;;;;;;;;;25.40;97.20;;;;;;5086766;28;19905;-48
2021/07/27 14:36:20;;;;;;;;;;;25.40;96.90;;;;;;5086894;28;19904;-52
2021/07/27 14:38:49;;;;;;;;;;;25.40;96.90;;;;;;5086036;28;19923;-45
2021/07/27 14:41:15;;;;;;;;;;;25.40;96.90;;;;;;5068803;28;19919;-47
2021/07/27 14:43:43;;;;;;;;;;;25.40;96.80;;;;;;5086827;28;19971;-45